createdAt,value
2018-07-03T00:00:47.749Z,88.55
2018-07-03T00:01:47.654Z,87.31
2018-07-03T00:02:47.651Z,90.41
2018-07-03T00:03:47.473Z,90.79
2018-07-03T00:04:47.410Z,94.41
2018-07-03T00:05:47.291Z,94.17
2018-07-03T00:06:47.191Z,93.22
2018-07-03T00:07:47.097Z,93.60
2018-07-03T00:08:47.010Z,92.27
2018-07-03T00:09:47.038Z,92.84
2018-07-03T00:10:46.822Z,95.32
2018-07-03T00:11:46.729Z,97.74
2018-07-03T00:12:46.634Z,98.41
2018-07-03T00:13:46.540Z,99.99
2018-07-03T00:14:46.477Z,99.99
2018-07-03T00:15:46.354Z,99.99
2018-07-03T00:16:46.352Z,99.99
2018-07-03T00:17:46.171Z,99.99
2018-07-03T00:18:46.076Z,99.99
2018-07-03T00:19:46.010Z,99.99
2018-07-03T00:20:45.891Z,99.99
2018-07-03T00:21:45.794Z,99.99
2018-07-03T00:22:45.700Z,99.99
2018-07-03T00:23:45.701Z,99.99
2018-07-03T00:24:45.548Z,99.99
2018-07-03T00:25:45.424Z,99.99
2018-07-03T00:26:45.327Z,99.99
2018-07-03T00:27:45.236Z,99.99
2018-07-03T00:28:45.145Z,99.99
2018-07-03T00:29:45.087Z,99.99
2018-07-03T00:30:45.047Z,99.99
2018-07-03T00:31:44.864Z,99.99
2018-07-03T00:32:44.769Z,99.99
2018-07-03T00:33:44.673Z,99.99
2018-07-03T00:34:44.611Z,99.99
2018-07-03T00:35:44.487Z,98.83
2018-07-03T00:36:44.396Z,99.69
2018-07-03T00:37:44.390Z,99.99
2018-07-03T00:38:44.210Z,99.99
2018-07-03T00:39:44.145Z,99.99
2018-07-03T00:40:44.020Z,99.99
2018-07-03T00:41:43.928Z,99.99
2018-07-03T00:42:43.832Z,99.60
2018-07-03T00:43:43.737Z,98.83
2018-07-03T00:44:43.768Z,97.03
2018-07-03T00:45:43.549Z,97.41
2018-07-03T00:46:43.461Z,97.69
2018-07-03T00:47:43.365Z,98.36
2018-07-03T00:48:43.270Z,98.93
2018-07-03T00:49:43.208Z,99.17
2018-07-03T00:50:43.204Z,99.69
2018-07-03T00:51:42.990Z,99.99
2018-07-03T00:52:42.900Z,99.69
2018-07-03T00:53:42.802Z,99.79
2018-07-03T00:54:42.738Z,99.88
2018-07-03T00:55:42.616Z,99.99
2018-07-03T00:56:42.526Z,99.99
2018-07-03T00:57:42.432Z,99.99
2018-07-03T00:58:42.426Z,99.99
2018-07-03T00:59:42.273Z,99.99
2018-07-03T01:00:42.147Z,99.88
2018-07-03T01:01:42.052Z,99.50
2018-07-03T01:02:41.960Z,99.79
2018-07-03T01:03:41.865Z,99.69
2018-07-03T01:04:41.806Z,99.99
2018-07-03T01:05:41.679Z,99.99
2018-07-03T01:06:41.584Z,99.99
2018-07-03T01:07:41.490Z,99.99
2018-07-03T01:08:41.396Z,99.99
2018-07-03T01:09:41.350Z,99.99
2018-07-03T01:10:41.212Z,99.50
2018-07-03T01:11:41.117Z,99.50
2018-07-03T01:12:41.024Z,99.99
2018-07-03T01:13:40.932Z,99.99
2018-07-03T01:14:40.839Z,99.99
2018-07-03T01:15:40.772Z,99.99
2018-07-03T01:16:40.649Z,99.99
2018-07-03T01:17:40.552Z,99.99
2018-07-03T01:18:40.462Z,99.79
2018-07-03T01:19:40.397Z,99.79
2018-07-03T01:20:40.269Z,99.99
2018-07-03T01:21:40.177Z,99.99
2018-07-03T01:22:40.084Z,99.88
2018-07-03T01:23:39.991Z,99.69
2018-07-03T01:24:39.897Z,98.46
2018-07-03T01:25:39.833Z,97.17
2018-07-03T01:26:39.708Z,95.94
2018-07-03T01:27:39.614Z,94.42
2018-07-03T01:28:39.523Z,93.37
2018-07-03T01:29:39.428Z,92.60
2018-07-03T01:30:39.366Z,93.18
2018-07-03T01:31:39.239Z,93.55
2018-07-03T01:32:39.147Z,94.37
2018-07-03T01:33:39.055Z,93.08
2018-07-03T01:34:38.959Z,92.46
2018-07-03T01:35:38.894Z,92.08
2018-07-03T01:36:38.771Z,90.56
2018-07-03T01:37:38.677Z,89.13
2018-07-03T01:38:38.585Z,88.46
2018-07-03T01:39:38.486Z,89.51
2018-07-03T01:40:38.424Z,89.03
2018-07-03T01:41:38.302Z,89.79
2018-07-03T01:42:38.210Z,89.51
2018-07-03T01:43:38.114Z,88.08
2018-07-03T01:44:38.020Z,88.18
2018-07-03T01:45:37.960Z,86.84
2018-07-03T01:46:37.834Z,86.84
2018-07-03T01:47:37.741Z,86.32
2018-07-03T01:48:37.645Z,86.98
2018-07-03T01:49:37.570Z,87.65
2018-07-03T01:50:37.491Z,87.55
2018-07-03T01:51:37.364Z,86.03
2018-07-03T01:52:37.273Z,86.12
2018-07-03T01:53:37.178Z,86.03
2018-07-03T01:54:37.086Z,86.98
2018-07-03T01:55:37.026Z,87.46
2018-07-03T01:56:36.900Z,89.26
2018-07-03T01:57:36.804Z,90.89
2018-07-03T01:58:36.713Z,91.60
2018-07-03T01:59:36.620Z,90.08
2018-07-03T02:00:36.554Z,89.41
2018-07-03T02:01:36.430Z,88.65
2018-07-03T02:02:36.638Z,87.79
2018-07-03T02:03:36.243Z,87.03
2018-07-03T02:04:36.150Z,88.46
2018-07-03T02:05:36.088Z,88.41
2018-07-03T02:06:35.964Z,91.79
2018-07-03T02:07:35.868Z,92.74
2018-07-03T02:08:35.785Z,90.36
2018-07-03T02:09:35.685Z,91.99
2018-07-03T02:10:35.630Z,90.27
2018-07-03T02:11:35.498Z,90.08
2018-07-03T02:12:35.404Z,89.70
2018-07-03T02:13:35.310Z,91.13
2018-07-03T02:14:35.215Z,93.70
2018-07-03T02:15:35.157Z,95.56
2018-07-03T02:16:35.031Z,92.22
2018-07-03T02:17:34.936Z,93.37
2018-07-03T02:18:34.840Z,91.65
2018-07-03T02:19:34.748Z,92.60
2018-07-03T02:20:34.694Z,94.89
2018-07-03T02:21:34.559Z,94.42
2018-07-03T02:22:34.467Z,97.65
2018-07-03T02:23:34.373Z,97.93
2018-07-03T02:24:34.281Z,96.51
2018-07-03T02:25:34.220Z,94.89
2018-07-03T02:26:34.095Z,95.27
2018-07-03T02:27:34.000Z,92.32
2018-07-03T02:28:33.907Z,92.32
2018-07-03T02:29:33.817Z,96.70
2018-07-03T02:30:33.751Z,97.84
2018-07-03T02:31:33.631Z,97.74
2018-07-03T02:32:33.566Z,98.13
2018-07-03T02:33:33.440Z,96.41
2018-07-03T02:34:33.347Z,95.65
2018-07-03T02:35:33.254Z,98.46
2018-07-03T02:36:33.160Z,95.17
2018-07-03T02:37:33.096Z,94.51
2018-07-03T02:38:32.976Z,92.99
2018-07-03T02:39:32.894Z,97.84
2018-07-03T02:40:32.784Z,97.36
2018-07-03T02:41:32.693Z,98.60
2018-07-03T02:42:32.630Z,96.22
2018-07-03T02:43:32.597Z,95.17
2018-07-03T02:44:32.409Z,98.32
2018-07-03T02:45:32.316Z,99.99
2018-07-03T02:46:32.220Z,99.69
2018-07-03T02:47:32.132Z,99.31
2018-07-03T02:48:32.067Z,99.88
2018-07-03T02:49:31.954Z,99.02
2018-07-03T02:50:31.936Z,96.74
2018-07-03T02:51:31.754Z,94.65
2018-07-03T02:52:31.662Z,98.83
2018-07-03T02:53:31.599Z,98.17
2018-07-03T02:54:31.473Z,96.55
2018-07-03T02:55:31.377Z,96.26
2018-07-03T02:56:31.284Z,98.74
2018-07-03T02:57:31.280Z,97.88
2018-07-03T02:58:31.132Z,95.27
2018-07-03T02:59:31.006Z,94.79
2018-07-03T03:00:30.911Z,96.70
2018-07-03T03:01:30.815Z,97.93
2018-07-03T03:02:30.722Z,97.93
2018-07-03T03:03:30.661Z,97.55
2018-07-03T03:04:30.624Z,97.36
2018-07-03T03:05:30.440Z,97.50
2018-07-03T03:06:30.343Z,97.60
2018-07-03T03:07:30.254Z,99.22
2018-07-03T03:08:30.192Z,97.55
2018-07-03T03:09:30.083Z,96.31
2018-07-03T03:10:29.972Z,95.75
2018-07-03T03:11:29.972Z,93.55
2018-07-03T03:12:29.806Z,93.08
2018-07-03T03:13:29.725Z,91.75
2018-07-03T03:14:29.593Z,92.79
2018-07-03T03:15:29.502Z,90.75
2018-07-03T03:16:29.409Z,90.36
2018-07-03T03:17:29.312Z,88.37
2018-07-03T03:18:29.344Z,90.08
2018-07-03T03:19:29.130Z,93.41
2018-07-03T03:20:29.035Z,94.84
2018-07-03T03:21:28.941Z,97.36
2018-07-03T03:22:28.873Z,97.17
2018-07-03T03:23:28.787Z,95.94
2018-07-03T03:24:28.657Z,96.70
2018-07-03T03:25:28.653Z,96.12
2018-07-03T03:26:28.470Z,94.51
2018-07-03T03:27:28.376Z,94.60
2018-07-03T03:28:28.315Z,95.75
2018-07-03T03:29:28.190Z,98.22
2018-07-03T03:30:28.096Z,97.36
2018-07-03T03:31:28.003Z,96.41
2018-07-03T03:32:28.003Z,93.84
2018-07-03T03:33:27.849Z,94.32
2018-07-03T03:34:27.722Z,92.89
2018-07-03T03:35:27.628Z,93.13
2018-07-03T03:36:27.539Z,91.99
2018-07-03T03:37:27.442Z,91.22
2018-07-03T03:38:27.379Z,90.94
2018-07-03T03:39:27.347Z,93.13
2018-07-03T03:40:27.166Z,93.32
2018-07-03T03:41:27.066Z,94.46
2018-07-03T03:42:26.969Z,97.99
2018-07-03T03:43:26.910Z,97.93
2018-07-03T03:44:26.784Z,97.17
2018-07-03T03:45:26.689Z,94.13
2018-07-03T03:46:26.686Z,93.46
2018-07-03T03:47:26.508Z,93.41
2018-07-03T03:48:26.443Z,97.36
2018-07-03T03:49:26.319Z,97.65
2018-07-03T03:50:26.221Z,98.32
2018-07-03T03:51:26.131Z,99.93
2018-07-03T03:52:26.037Z,99.84
2018-07-03T03:53:26.064Z,99.99
2018-07-03T03:54:25.847Z,99.99
2018-07-03T03:55:25.758Z,99.99
2018-07-03T03:56:25.666Z,99.99
2018-07-03T03:57:25.569Z,99.99
2018-07-03T03:58:25.507Z,99.99
2018-07-03T03:59:25.382Z,99.27
2018-07-03T04:00:25.379Z,99.99
2018-07-03T04:01:25.197Z,99.99
2018-07-03T04:02:25.098Z,99.99
2018-07-03T04:03:25.043Z,99.99
2018-07-03T04:04:24.932Z,99.99
2018-07-03T04:05:24.820Z,99.99
2018-07-03T04:06:24.728Z,99.99
2018-07-03T04:07:24.637Z,99.99
2018-07-03T04:08:24.577Z,99.99
2018-07-03T04:09:24.444Z,99.99
2018-07-03T04:10:24.352Z,99.55
2018-07-03T04:11:24.258Z,98.55
2018-07-03T04:12:24.163Z,98.08
2018-07-03T04:13:24.109Z,95.98
2018-07-03T04:14:23.976Z,96.84
2018-07-03T04:15:23.884Z,94.17
2018-07-03T04:16:23.794Z,95.36
2018-07-03T04:17:23.698Z,96.03
2018-07-03T04:18:23.604Z,93.74
2018-07-03T04:19:23.541Z,95.08
2018-07-03T04:20:23.418Z,93.55
2018-07-03T04:21:23.324Z,95.65
2018-07-03T04:22:23.232Z,95.36
2018-07-03T04:23:23.140Z,95.46
2018-07-03T04:24:23.076Z,94.60
2018-07-03T04:25:22.953Z,93.08
2018-07-03T04:26:22.858Z,96.12
2018-07-03T04:27:22.765Z,94.98
2018-07-03T04:28:22.674Z,92.08
2018-07-03T04:29:22.612Z,90.17
2018-07-03T04:30:22.485Z,89.69
2018-07-03T04:31:22.393Z,89.50
2018-07-03T04:32:22.302Z,88.78
2018-07-03T04:33:22.209Z,90.31
2018-07-03T04:34:22.147Z,89.64
2018-07-03T04:35:22.020Z,92.12
2018-07-03T04:36:21.931Z,89.93
2018-07-03T04:37:21.836Z,89.54
2018-07-03T04:38:21.743Z,89.97
2018-07-03T04:39:21.680Z,88.16
2018-07-03T04:40:21.554Z,89.50
2018-07-03T04:41:21.518Z,90.07
2018-07-03T04:42:21.374Z,91.31
2018-07-03T04:43:21.279Z,92.65
2018-07-03T04:44:21.220Z,91.12
2018-07-03T04:45:21.097Z,89.40
2018-07-03T04:46:21.003Z,89.59
2018-07-03T04:47:20.912Z,89.50
2018-07-03T04:48:20.820Z,89.50
2018-07-03T04:49:20.764Z,90.07
2018-07-03T04:50:20.636Z,89.59
2018-07-03T04:51:20.544Z,90.17
2018-07-03T04:52:20.452Z,89.31
2018-07-03T04:53:20.418Z,88.64
2018-07-03T04:54:20.299Z,91.50
2018-07-03T04:55:20.175Z,90.40
2018-07-03T04:56:20.082Z,93.17
2018-07-03T04:57:19.995Z,92.21
2018-07-03T04:58:19.901Z,92.88
2018-07-03T04:59:19.843Z,92.97
2018-07-03T05:00:19.719Z,92.97
2018-07-03T05:01:19.629Z,93.55
2018-07-03T05:02:19.547Z,93.26
2018-07-03T05:03:19.441Z,92.79
2018-07-03T05:04:19.382Z,93.12
2018-07-03T05:05:19.258Z,93.50
2018-07-03T05:06:19.167Z,94.55
2018-07-03T05:07:19.074Z,90.54
2018-07-03T05:08:18.985Z,88.92
2018-07-03T05:09:18.925Z,90.25
2018-07-03T05:10:18.799Z,89.20
2018-07-03T05:11:18.708Z,90.45
2018-07-03T05:12:18.620Z,90.35
2018-07-03T05:13:18.532Z,93.70
2018-07-03T05:14:18.473Z,91.21
2018-07-03T05:15:18.346Z,90.39
2018-07-03T05:16:18.257Z,88.77
2018-07-03T05:17:18.166Z,88.96
2018-07-03T05:18:18.072Z,88.77
2018-07-03T05:19:18.014Z,93.74
2018-07-03T05:20:17.893Z,99.28
2018-07-03T05:21:17.803Z,96.89
2018-07-03T05:22:17.712Z,93.55
2018-07-03T05:23:17.725Z,90.11
2018-07-03T05:24:17.563Z,90.59
2018-07-03T05:25:17.437Z,89.44
2018-07-03T05:26:17.349Z,88.68
2018-07-03T05:27:17.254Z,89.92
2018-07-03T05:28:17.166Z,89.06
2018-07-03T05:29:17.108Z,90.49
2018-07-03T05:30:17.075Z,89.25
2018-07-03T05:31:16.894Z,89.44
2018-07-03T05:32:16.806Z,90.34
2018-07-03T05:33:16.712Z,88.81
2018-07-03T05:34:16.675Z,89.01
2018-07-03T05:35:16.534Z,87.86
2018-07-03T05:36:16.443Z,86.90
2018-07-03T05:37:16.486Z,87.76
2018-07-03T05:38:16.263Z,89.20
2018-07-03T05:39:16.206Z,89.58
2018-07-03T05:40:16.086Z,87.57
2018-07-03T05:41:15.990Z,88.00
2018-07-03T05:42:15.900Z,86.37
2018-07-03T05:43:15.811Z,86.66
2018-07-03T05:44:15.828Z,87.37
2018-07-03T05:45:15.632Z,88.52
2018-07-03T05:46:15.540Z,89.00
2018-07-03T05:47:15.452Z,87.76
2018-07-03T05:48:15.362Z,89.09
2018-07-03T05:49:15.273Z,89.09
2018-07-03T05:50:15.216Z,84.69
2018-07-03T05:51:15.185Z,83.59
2018-07-03T05:52:15.006Z,89.23
2018-07-03T05:53:14.913Z,81.67
2018-07-03T05:54:14.825Z,76.12
2018-07-03T05:55:14.764Z,80.27
2018-07-03T05:56:14.654Z,71.75
2018-07-03T05:57:14.557Z,72.80
2018-07-03T05:58:14.623Z,71.98
2018-07-03T05:59:14.381Z,70.15
2018-07-03T06:00:14.321Z,70.64
2018-07-03T06:01:14.201Z,68.62
2018-07-03T06:02:14.115Z,66.55
2018-07-03T06:03:14.023Z,64.63
2018-07-03T06:04:13.936Z,64.53
2018-07-03T06:05:13.949Z,65.78
2018-07-03T06:06:13.758Z,65.68
2018-07-03T06:07:13.666Z,64.34
2018-07-03T06:08:13.581Z,64.92
2018-07-03T06:09:13.549Z,64.43
2018-07-03T06:10:13.435Z,64.05
2018-07-03T06:11:13.315Z,66.00
2018-07-03T06:12:13.356Z,65.33
2018-07-03T06:13:13.136Z,67.16
2018-07-03T06:14:13.051Z,65.52
2018-07-03T06:15:12.993Z,66.19
2018-07-03T06:16:12.869Z,64.66
2018-07-03T06:17:12.782Z,64.76
2018-07-03T06:18:12.694Z,63.12
2018-07-03T06:19:12.604Z,66.00
2018-07-03T06:20:12.550Z,64.85
2018-07-03T06:21:12.568Z,64.56
2018-07-03T06:22:12.558Z,66.19
2018-07-03T06:23:12.253Z,67.63
2018-07-03T06:24:12.164Z,65.43
2018-07-03T06:25:12.105Z,64.37
2018-07-03T06:26:11.986Z,65.81
2018-07-03T06:27:11.902Z,63.89
2018-07-03T06:28:11.808Z,61.69
2018-07-03T06:29:11.723Z,62.65
2018-07-03T06:30:11.664Z,63.99
2018-07-03T06:31:11.544Z,62.96
2018-07-03T06:32:11.456Z,62.55
2018-07-03T06:33:11.366Z,61.81
2018-07-03T06:34:11.278Z,62.01
2018-07-03T06:35:11.222Z,63.16
2018-07-03T06:36:11.103Z,64.12
2018-07-03T06:37:11.024Z,62.48
2018-07-03T06:38:10.925Z,63.45
2018-07-03T06:39:10.838Z,59.16
2018-07-03T06:40:10.784Z,61.17
2018-07-03T06:41:10.662Z,62.90
2018-07-03T06:42:10.571Z,60.63
2018-07-03T06:43:10.485Z,59.89
2018-07-03T06:44:10.399Z,59.69
2018-07-03T06:45:10.341Z,60.39
2018-07-03T06:46:10.224Z,58.98
2018-07-03T06:47:10.136Z,58.50
2018-07-03T06:48:10.048Z,58.02
2018-07-03T06:49:09.959Z,55.07
2018-07-03T06:50:09.902Z,56.12
2018-07-03T06:51:09.787Z,55.74
2018-07-03T06:52:09.702Z,56.92
2018-07-03T06:53:09.615Z,54.74
2018-07-03T06:54:09.532Z,54.35
2018-07-03T06:55:09.476Z,55.79
2018-07-03T06:56:09.360Z,55.00
2018-07-03T06:57:09.272Z,52.91
2018-07-03T06:58:09.188Z,53.29
2018-07-03T06:59:09.103Z,52.78
2018-07-03T07:00:09.051Z,53.74
2018-07-03T07:01:08.932Z,54.83
2018-07-03T07:02:08.848Z,55.44
2018-07-03T07:03:08.762Z,53.83
2018-07-03T07:04:08.680Z,52.28
2018-07-03T07:05:08.628Z,50.38
2018-07-03T07:06:08.515Z,52.53
2018-07-03T07:07:08.431Z,49.68
2018-07-03T07:08:08.352Z,49.07
2018-07-03T07:09:08.367Z,51.00
2018-07-03T07:10:08.213Z,50.71
2018-07-03T07:11:08.098Z,50.81
2018-07-03T07:12:08.024Z,49.68
2018-07-03T07:13:07.940Z,48.64
2018-07-03T07:14:07.855Z,49.24
2018-07-03T07:15:07.856Z,49.53
2018-07-03T07:16:07.690Z,49.95
2018-07-03T07:17:07.609Z,49.49
2018-07-03T07:18:07.529Z,49.68
2018-07-03T07:19:07.447Z,49.49
2018-07-03T07:20:07.368Z,47.74
2018-07-03T07:21:07.319Z,48.54
2018-07-03T07:22:07.319Z,49.41
2018-07-03T07:23:07.159Z,48.90
2018-07-03T07:24:07.047Z,48.32
2018-07-03T07:25:06.967Z,47.65
2018-07-03T07:26:06.914Z,48.81
2018-07-03T07:27:06.809Z,49.97
2018-07-03T07:28:06.726Z,50.96
2018-07-03T07:29:06.735Z,52.02
2018-07-03T07:30:06.564Z,49.90
2018-07-03T07:31:06.518Z,48.47
2018-07-03T07:32:06.411Z,47.52
2018-07-03T07:33:06.331Z,47.45
2018-07-03T07:34:06.245Z,46.19
2018-07-03T07:35:06.172Z,45.54
2018-07-03T07:36:06.209Z,44.16
2018-07-03T07:37:06.008Z,42.71
2018-07-03T07:38:05.933Z,41.76
2018-07-03T07:39:05.853Z,41.76
2018-07-03T07:40:05.775Z,43.70
2018-07-03T07:41:05.729Z,41.39
2018-07-03T07:42:05.616Z,42.24
2018-07-03T07:43:05.622Z,44.47
2018-07-03T07:44:05.458Z,43.87
2018-07-03T07:45:05.383Z,43.27
2018-07-03T07:46:05.332Z,43.27
2018-07-03T07:47:05.227Z,43.73
2018-07-03T07:48:05.147Z,42.97
2018-07-03T07:49:05.066Z,42.32
2018-07-03T07:50:05.080Z,41.55
2018-07-03T07:51:04.943Z,42.24
2018-07-03T07:52:04.834Z,42.54
2018-07-03T07:53:04.756Z,43.31
2018-07-03T07:54:04.680Z,41.56
2018-07-03T07:55:04.599Z,40.89
2018-07-03T07:56:04.556Z,41.08
2018-07-03T07:57:04.548Z,41.47
2018-07-03T07:58:04.361Z,42.44
2018-07-03T07:59:04.287Z,41.64
2018-07-03T08:00:04.209Z,42.05
2018-07-03T08:01:04.160Z,41.95
2018-07-03T08:02:04.054Z,41.56
2018-07-03T08:03:03.972Z,43.02
2018-07-03T08:04:03.998Z,45.51
2018-07-03T08:05:03.816Z,45.32
2018-07-03T08:06:03.774Z,46.39
2018-07-03T08:07:03.663Z,46.58
2018-07-03T08:08:03.587Z,47.74
2018-07-03T08:09:03.521Z,47.77
2018-07-03T08:10:03.433Z,46.53
2018-07-03T08:11:03.484Z,46.62
2018-07-03T08:12:03.275Z,45.27
2018-07-03T08:13:03.197Z,45.29
2018-07-03T08:14:03.119Z,46.65
2018-07-03T08:15:03.043Z,48.39
2018-07-03T08:16:02.995Z,46.55
2018-07-03T08:17:02.890Z,46.75
2018-07-03T08:18:02.906Z,46.26
2018-07-03T08:19:02.777Z,44.68
2018-07-03T08:20:02.652Z,44.27
2018-07-03T08:21:02.603Z,43.62
2018-07-03T08:22:02.494Z,46.72
2018-07-03T08:23:02.418Z,46.04
2018-07-03T08:24:02.344Z,46.94
2018-07-03T08:25:02.266Z,47.72
2018-07-03T08:26:02.221Z,45.48
2018-07-03T08:27:02.111Z,44.32
2018-07-03T08:28:02.032Z,46.45
2018-07-03T08:29:01.953Z,45.68
2018-07-03T08:30:01.884Z,45.02
2018-07-03T08:31:01.826Z,46.55
2018-07-03T08:32:01.722Z,48.18
2018-07-03T08:33:01.639Z,46.43
2018-07-03T08:34:01.575Z,44.96
2018-07-03T08:35:01.489Z,44.01
2018-07-03T08:36:01.438Z,43.91
2018-07-03T08:37:01.330Z,43.16
2018-07-03T08:38:01.254Z,42.02
2018-07-03T08:39:01.175Z,41.41
2018-07-03T08:40:01.098Z,41.51
2018-07-03T08:41:01.048Z,44.13
2018-07-03T08:42:00.937Z,45.65
2018-07-03T08:43:00.862Z,43.26
2018-07-03T08:44:00.786Z,45.87
2018-07-03T08:45:00.708Z,45.29
2018-07-03T08:46:00.661Z,45.41
2018-07-03T08:47:00.552Z,45.80
2018-07-03T08:48:00.471Z,45.20
2018-07-03T08:49:00.396Z,46.38
2018-07-03T08:50:00.317Z,45.41
2018-07-03T08:51:00.241Z,44.27
2018-07-03T08:52:00.211Z,44.38
2018-07-03T08:53:00.089Z,43.18
2018-07-03T08:54:00.010Z,44.30
2018-07-03T08:54:59.971Z,44.90
2018-07-03T08:55:59.857Z,45.85
2018-07-03T08:56:59.802Z,46.45
2018-07-03T08:57:59.698Z,43.74
2018-07-03T08:58:59.618Z,42.99
2018-07-03T08:59:59.538Z,41.06
2018-07-03T09:00:59.466Z,41.57
2018-07-03T09:01:59.420Z,40.69
2018-07-03T09:02:59.308Z,40.41
2018-07-03T09:03:59.230Z,38.75
2018-07-03T09:04:59.153Z,40.41
2018-07-03T09:05:59.076Z,41.26
2018-07-03T09:06:59.028Z,40.60
2018-07-03T09:07:58.919Z,40.99
2018-07-03T09:08:58.841Z,42.13
2018-07-03T09:09:58.761Z,40.09
2018-07-03T09:10:58.685Z,40.29
2018-07-03T09:11:58.637Z,40.69
2018-07-03T09:12:58.526Z,39.43
2018-07-03T09:13:58.451Z,38.95
2018-07-03T09:14:58.375Z,39.41
2018-07-03T09:15:58.295Z,41.67
2018-07-03T09:16:58.251Z,42.50
2018-07-03T09:17:58.188Z,43.20
2018-07-03T09:18:58.067Z,42.11
2018-07-03T09:19:57.987Z,41.64
2018-07-03T09:20:57.920Z,43.51
2018-07-03T09:21:57.864Z,44.48
2018-07-03T09:22:57.752Z,42.18
2018-07-03T09:23:57.680Z,42.25
2018-07-03T09:24:57.605Z,45.53
2018-07-03T09:25:57.522Z,44.17
2018-07-03T09:26:57.566Z,43.22
2018-07-03T09:27:57.365Z,43.22
2018-07-03T09:28:57.294Z,43.44
2018-07-03T09:29:57.211Z,42.43
2018-07-03T09:30:57.132Z,43.01
2018-07-03T09:31:57.087Z,42.03
2018-07-03T09:32:56.977Z,40.50
2018-07-03T09:33:57.008Z,40.41
2018-07-03T09:34:56.825Z,40.21
2018-07-03T09:35:56.746Z,42.05
2018-07-03T09:36:56.701Z,42.85
2018-07-03T09:37:56.594Z,42.91
2018-07-03T09:38:56.520Z,41.67
2018-07-03T09:39:56.436Z,42.23
2018-07-03T09:40:56.449Z,42.21
2018-07-03T09:41:56.312Z,44.27
2018-07-03T09:42:56.205Z,44.56
2018-07-03T09:43:56.130Z,43.24
2018-07-03T09:44:56.049Z,41.49
2018-07-03T09:45:55.984Z,42.08
2018-07-03T09:46:55.929Z,40.33
2018-07-03T09:47:55.910Z,41.88
2018-07-03T09:48:55.748Z,39.36
2018-07-03T09:49:55.661Z,41.77
2018-07-03T09:50:55.583Z,40.99
2018-07-03T09:51:55.540Z,40.39
2018-07-03T09:52:55.430Z,40.67
2018-07-03T09:53:55.350Z,42.13
2018-07-03T09:54:55.413Z,43.92
2018-07-03T09:55:55.198Z,41.98
2018-07-03T09:56:55.151Z,43.55
2018-07-03T09:57:55.041Z,41.78
2018-07-03T09:58:54.963Z,41.51
2018-07-03T09:59:54.886Z,40.23
2018-07-03T10:00:54.812Z,38.79
2018-07-03T10:01:54.852Z,41.98
2018-07-03T10:02:54.662Z,41.90
2018-07-03T10:03:54.579Z,42.78
2018-07-03T10:04:54.503Z,41.71
2018-07-03T10:05:54.425Z,39.45
2018-07-03T10:06:54.381Z,40.52
2018-07-03T10:07:54.270Z,38.56
2018-07-03T10:08:54.289Z,40.23
2018-07-03T10:09:54.130Z,41.69
2018-07-03T10:10:54.040Z,42.85
2018-07-03T10:11:54.001Z,42.85
2018-07-03T10:12:53.889Z,43.05
2018-07-03T10:13:53.813Z,42.87
2018-07-03T10:14:53.729Z,41.51
2018-07-03T10:15:53.748Z,42.49
2018-07-03T10:16:53.606Z,41.20
2018-07-03T10:17:53.497Z,39.37
2018-07-03T10:18:53.488Z,36.46
2018-07-03T10:19:53.349Z,38.81
2018-07-03T10:20:53.268Z,41.72
2018-07-03T10:21:53.222Z,42.41
2018-07-03T10:22:53.217Z,45.47
2018-07-03T10:23:53.037Z,46.36
2018-07-03T10:24:52.957Z,43.27
2018-07-03T10:25:52.883Z,44.75
2018-07-03T10:26:52.809Z,43.27
2018-07-03T10:27:52.760Z,44.17
2018-07-03T10:28:52.649Z,42.54
2018-07-03T10:29:52.665Z,40.33
2018-07-03T10:30:52.493Z,40.15
2018-07-03T10:31:52.423Z,38.42
2018-07-03T10:32:52.383Z,39.12
2018-07-03T10:33:52.264Z,42.50
2018-07-03T10:34:52.202Z,41.73
2018-07-03T10:35:52.108Z,38.01
2018-07-03T10:36:52.033Z,42.60
2018-07-03T10:37:51.987Z,40.97
2018-07-03T10:38:51.877Z,39.29
2018-07-03T10:39:51.799Z,40.68
2018-07-03T10:40:51.727Z,42.31
2018-07-03T10:41:51.645Z,41.94
2018-07-03T10:42:51.600Z,40.31
2018-07-03T10:43:51.492Z,38.07
2018-07-03T10:44:51.413Z,37.66
2018-07-03T10:45:51.339Z,37.54
2018-07-03T10:46:51.259Z,36.18
2018-07-03T10:47:51.217Z,37.43
2018-07-03T10:48:51.125Z,37.39
2018-07-03T10:49:51.032Z,37.78
2018-07-03T10:50:50.952Z,37.98
2018-07-03T10:51:50.877Z,38.29
2018-07-03T10:52:50.830Z,35.88
2018-07-03T10:53:50.721Z,37.43
2018-07-03T10:54:50.643Z,38.13
2018-07-03T10:55:50.569Z,36.77
2018-07-03T10:56:50.492Z,39.00
2018-07-03T10:57:50.445Z,39.12
2018-07-03T10:58:50.340Z,40.19
2018-07-03T10:59:50.261Z,40.60
2018-07-03T11:00:50.181Z,39.55
2018-07-03T11:01:50.104Z,37.89
2018-07-03T11:02:50.059Z,38.36
2018-07-03T11:03:49.953Z,37.58
2018-07-03T11:04:49.876Z,37.68
2018-07-03T11:05:49.798Z,37.46
2018-07-03T11:06:49.726Z,35.99
2018-07-03T11:07:49.678Z,37.08
2018-07-03T11:08:49.566Z,39.31
2018-07-03T11:09:49.500Z,37.00
2018-07-03T11:10:49.417Z,36.98
2018-07-03T11:11:49.346Z,35.13
2018-07-03T11:12:49.296Z,36.59
2018-07-03T11:13:49.261Z,37.00
2018-07-03T11:14:49.109Z,33.18
2018-07-03T11:15:49.035Z,32.70
2018-07-03T11:16:48.958Z,33.77
2018-07-03T11:17:48.910Z,34.94
2018-07-03T11:18:48.801Z,34.45
2018-07-03T11:19:48.790Z,36.38
2018-07-03T11:20:48.651Z,35.33
2018-07-03T11:21:48.570Z,33.48
2018-07-03T11:22:48.533Z,33.77
2018-07-03T11:23:48.417Z,33.98
2018-07-03T11:24:48.341Z,34.16
2018-07-03T11:25:48.266Z,38.65
2018-07-03T11:26:48.188Z,37.68
2018-07-03T11:27:48.144Z,37.89
2018-07-03T11:28:48.037Z,38.09
2018-07-03T11:29:47.962Z,35.93
2018-07-03T11:30:47.880Z,37.41
2018-07-03T11:31:47.811Z,36.92
2018-07-03T11:32:47.765Z,36.53
2018-07-03T11:33:47.705Z,36.71
2018-07-03T11:34:47.581Z,38.71
2018-07-03T11:35:47.502Z,36.57
2018-07-03T11:36:47.421Z,34.72
2018-07-03T11:37:47.430Z,37.84
2018-07-03T11:38:47.275Z,37.04
2018-07-03T11:39:47.197Z,38.13
2018-07-03T11:40:47.117Z,36.87
2018-07-03T11:41:47.042Z,40.56
2018-07-03T11:42:46.996Z,37.74
2018-07-03T11:43:46.890Z,39.69
2018-07-03T11:44:46.866Z,36.57
2018-07-03T11:45:46.735Z,37.16
2018-07-03T11:46:46.659Z,40.75
2018-07-03T11:47:46.614Z,36.75
2018-07-03T11:48:46.507Z,36.75
2018-07-03T11:49:46.429Z,38.01
2018-07-03T11:50:46.354Z,38.01
2018-07-03T11:51:46.276Z,39.20
2018-07-03T11:52:46.298Z,36.69
2018-07-03T11:53:46.156Z,38.24
2018-07-03T11:54:46.048Z,37.39
2018-07-03T11:55:45.973Z,42.06
2018-07-03T11:56:45.895Z,40.31
2018-07-03T11:57:45.820Z,37.97
2018-07-03T11:58:45.769Z,37.58
2018-07-03T11:59:45.662Z,36.49
2018-07-03T12:00:45.587Z,35.91
2018-07-03T12:01:45.566Z,35.81
2018-07-03T12:02:45.441Z,34.74
2018-07-03T12:03:45.391Z,34.84
2018-07-03T12:04:45.280Z,34.35
2018-07-03T12:05:45.203Z,33.77
2018-07-03T12:06:45.134Z,33.29
2018-07-03T12:07:45.056Z,33.20
2018-07-03T12:08:45.009Z,33.39
2018-07-03T12:09:44.900Z,35.23
2018-07-03T12:10:44.822Z,35.81
2018-07-03T12:11:44.745Z,33.18
2018-07-03T12:12:44.668Z,31.43
2018-07-03T12:13:44.715Z,31.06
2018-07-03T12:14:44.516Z,31.92
2018-07-03T12:15:44.439Z,31.35
2018-07-03T12:16:44.367Z,31.54
2018-07-03T12:17:44.288Z,32.32
2018-07-03T12:18:44.274Z,30.67
2018-07-03T12:19:44.210Z,31.84
2018-07-03T12:20:44.144Z,32.71
2018-07-03T12:21:43.979Z,30.98
2018-07-03T12:22:43.906Z,31.66
2018-07-03T12:23:43.856Z,32.05
2018-07-03T12:24:43.748Z,31.95
2018-07-03T12:25:43.672Z,32.52
2018-07-03T12:26:43.596Z,34.08
2018-07-03T12:27:43.611Z,34.95
2018-07-03T12:28:43.474Z,34.95
2018-07-03T12:29:43.369Z,35.15
2018-07-03T12:30:43.290Z,33.29
2018-07-03T12:31:43.216Z,33.98
2018-07-03T12:32:43.137Z,31.82
2018-07-03T12:33:43.097Z,32.97
2018-07-03T12:34:43.073Z,34.05
2018-07-03T12:35:42.921Z,35.60
2018-07-03T12:36:42.837Z,31.79
2018-07-03T12:37:42.759Z,30.90
2018-07-03T12:38:42.713Z,31.21
2018-07-03T12:39:42.601Z,32.96
2018-07-03T12:40:42.534Z,34.98
2018-07-03T12:41:42.543Z,37.52
2018-07-03T12:42:42.374Z,36.85
2018-07-03T12:43:42.328Z,37.24
2018-07-03T12:44:42.220Z,37.34
2018-07-03T12:45:42.146Z,35.47
2018-07-03T12:46:42.070Z,37.04
2018-07-03T12:47:41.992Z,39.37
2018-07-03T12:48:42.047Z,40.47
2018-07-03T12:49:41.866Z,40.66
2018-07-03T12:50:41.763Z,38.13
2018-07-03T12:51:41.685Z,40.72